sensor_id;sensor_type;location;lat;lon;timestamp;P1;durP1;ratioP1;P2;durP2;ratioP2
20090;SDS011;10205;49.678;6.560;2023-06-26T00:02:22;4.35;;;3.30;;
20090;SDS011;10205;49.678;6.560;2023-06-26T00:04:50;3.60;;;3.30;;
20090;SDS011;10205;49.678;6.560;2023-06-26T00:07:19;3.70;;;3.40;;
20090;SDS011;10205;49.678;6.560;2023-06-26T00:09:46;3.40;;;3.10;;
20090;SDS011;10205;49.678;6.560;2023-06-26T00:12:14;3.85;;;3.55;;
20090;SDS011;10205;49.678;6.560;2023-06-26T00:14:42;3.97;;;3.60;;
20090;SDS011;10205;49.678;6.560;2023-06-26T00:17:13;3.70;;;3.40;;
20090;SDS011;10205;49.678;6.560;2023-06-26T00:19:42;3.70;;;3.40;;
20090;SDS011;10205;49.678;6.560;2023-06-26T00:22:09;3.70;;;3.40;;
20090;SDS011;10205;49.678;6.560;2023-06-26T00:24:37;3.83;;;3.53;;
20090;SDS011;10205;49.678;6.560;2023-06-26T00:27:04;3.58;;;3.28;;
20090;SDS011;10205;49.678;6.560;2023-06-26T00:29:32;3.35;;;3.05;;
20090;SDS011;10205;49.678;6.560;2023-06-26T00:32:00;3.88;;;3.45;;
20090;SDS011;10205;49.678;6.560;2023-06-26T00:38:09;4.07;;;3.60;;
20090;SDS011;10205;49.678;6.560;2023-06-26T00:40:36;3.63;;;3.22;;
20090;SDS011;10205;49.678;6.560;2023-06-26T00:43:04;3.17;;;2.95;;
20090;SDS011;10205;49.678;6.560;2023-06-26T00:45:31;3.70;;;3.40;;
20090;SDS011;10205;49.678;6.560;2023-06-26T00:48:00;5.18;;;3.53;;
20090;SDS011;10205;49.678;6.560;2023-06-26T00:50:28;3.60;;;3.30;;
20090;SDS011;10205;49.678;6.560;2023-06-26T00:52:57;3.95;;;3.65;;
20090;SDS011;10205;49.678;6.560;2023-06-26T00:55:27;3.53;;;3.22;;
20090;SDS011;10205;49.678;6.560;2023-06-26T00:57:54;4.05;;;3.25;;
20090;SDS011;10205;49.678;6.560;2023-06-26T01:00:22;3.92;;;3.53;;
20090;SDS011;10205;49.678;6.560;2023-06-26T01:02:50;3.90;;;3.17;;
20090;SDS011;10205;49.678;6.560;2023-06-26T01:05:17;3.72;;;3.42;;
20090;SDS011;10205;49.678;6.560;2023-06-26T01:10:36;3.22;;;2.92;;
20090;SDS011;10205;49.678;6.560;2023-06-26T01:13:04;3.70;;;3.17;;
20090;SDS011;10205;49.678;6.560;2023-06-26T01:15:31;3.38;;;3.08;;
20090;SDS011;10205;49.678;6.560;2023-06-26T01:17:58;3.30;;;3.00;;
20090;SDS011;10205;49.678;6.560;2023-06-26T01:20:29;3.70;;;3.40;;
20090;SDS011;10205;49.678;6.560;2023-06-26T01:23:02;3.70;;;3.40;;
20090;SDS011;10205;49.678;6.560;2023-06-26T01:25:51;3.03;;;2.80;;
20090;SDS011;10205;49.678;6.560;2023-06-26T01:28:43;3.45;;;3.13;;
20090;SDS011;10205;49.678;6.560;2023-06-26T01:31:12;3.70;;;3.40;;
20090;SDS011;10205;49.678;6.560;2023-06-26T01:33:43;3.13;;;2.83;;
20090;SDS011;10205;49.678;6.560;2023-06-26T01:36:11;4.18;;;3.25;;
20090;SDS011;10205;49.678;6.560;2023-06-26T01:38:40;3.88;;;3.47;;
20090;SDS011;10205;49.678;6.560;2023-06-26T01:41:07;3.20;;;2.90;;
20090;SDS011;10205;49.678;6.560;2023-06-26T01:43:39;3.72;;;3.42;;
20090;SDS011;10205;49.678;6.560;2023-06-26T01:46:25;3.92;;;3.63;;
20090;SDS011;10205;49.678;6.560;2023-06-26T01:49:06;3.63;;;3.33;;
20090;SDS011;10205;49.678;6.560;2023-06-26T01:51:41;3.97;;;3.65;;
20090;SDS011;10205;49.678;6.560;2023-06-26T01:54:15;3.97;;;3.67;;
20090;SDS011;10205;49.678;6.560;2023-06-26T01:56:48;3.15;;;2.85;;
20090;SDS011;10205;49.678;6.560;2023-06-26T01:59:19;3.70;;;3.40;;
20090;SDS011;10205;49.678;6.560;2023-06-26T02:01:48;3.78;;;3.47;;
20090;SDS011;10205;49.678;6.560;2023-06-26T02:04:16;3.90;;;3.60;;
20090;SDS011;10205;49.678;6.560;2023-06-26T02:06:43;3.67;;;3.38;;
20090;SDS011;10205;49.678;6.560;2023-06-26T02:09:10;3.75;;;3.30;;
20090;SDS011;10205;49.678;6.560;2023-06-26T02:11:37;3.55;;;3.15;;
20090;SDS011;10205;49.678;6.560;2023-06-26T02:14:05;3.20;;;2.90;;
20090;SDS011;10205;49.678;6.560;2023-06-26T02:16:35;3.83;;;3.45;;
20090;SDS011;10205;49.678;6.560;2023-06-26T02:19:02;3.80;;;3.50;;
20090;SDS011;10205;49.678;6.560;2023-06-26T02:21:30;3.75;;;3.45;;
20090;SDS011;10205;49.678;6.560;2023-06-26T02:23:58;5.30;;;3.65;;
20090;SDS011;10205;49.678;6.560;2023-06-26T02:26:25;3.60;;;3.30;;
20090;SDS011;10205;49.678;6.560;2023-06-26T02:28:53;5.78;;;3.38;;
20090;SDS011;10205;49.678;6.560;2023-06-26T02:31:20;3.50;;;3.20;;
20090;SDS011;10205;49.678;6.560;2023-06-26T02:33:48;3.42;;;3.13;;
20090;SDS011;10205;49.678;6.560;2023-06-26T02:36:15;3.22;;;2.92;;
20090;SDS011;10205;49.678;6.560;2023-06-26T02:38:43;3.58;;;3.28;;
20090;SDS011;10205;49.678;6.560;2023-06-26T02:41:19;3.63;;;3.30;;
20090;SDS011;10205;49.678;6.560;2023-06-26T02:43:47;3.70;;;3.30;;
20090;SDS011;10205;49.678;6.560;2023-06-26T02:46:14;3.63;;;3.33;;
20090;SDS011;10205;49.678;6.560;2023-06-26T02:48:42;3.85;;;3.45;;
20090;SDS011;10205;49.678;6.560;2023-06-26T02:51:10;3.72;;;3.17;;
20090;SDS011;10205;49.678;6.560;2023-06-26T02:53:37;3.95;;;3.55;;
20090;SDS011;10205;49.678;6.560;2023-06-26T02:56:04;3.72;;;3.30;;
20090;SDS011;10205;49.678;6.560;2023-06-26T02:58:32;3.30;;;3.00;;
20090;SDS011;10205;49.678;6.560;2023-06-26T03:00:59;3.70;;;3.40;;
20090;SDS011;10205;49.678;6.560;2023-06-26T03:03:26;3.35;;;3.05;;
20090;SDS011;10205;49.678;6.560;2023-06-26T03:05:53;3.78;;;3.47;;
20090;SDS011;10205;49.678;6.560;2023-06-26T03:08:23;3.47;;;3.17;;
20090;SDS011;10205;49.678;6.560;2023-06-26T03:10:50;3.95;;;3.20;;
20090;SDS011;10205;49.678;6.560;2023-06-26T03:13:17;3.42;;;3.10;;
20090;SDS011;10205;49.678;6.560;2023-06-26T03:15:45;3.42;;;3.00;;
20090;SDS011;10205;49.678;6.560;2023-06-26T03:18:12;3.70;;;3.40;;
20090;SDS011;10205;49.678;6.560;2023-06-26T03:20:39;3.72;;;3.42;;
20090;SDS011;10205;49.678;6.560;2023-06-26T03:23:07;3.38;;;3.08;;
20090;SDS011;10205;49.678;6.560;2023-06-26T03:25:36;3.88;;;3.40;;
20090;SDS011;10205;49.678;6.560;2023-06-26T03:28:03;3.90;;;3.47;;
20090;SDS011;10205;49.678;6.560;2023-06-26T03:30:30;3.55;;;3.25;;
20090;SDS011;10205;49.678;6.560;2023-06-26T03:32:58;4.03;;;3.60;;
20090;SDS011;10205;49.678;6.560;2023-06-26T03:35:25;3.85;;;3.50;;
20090;SDS011;10205;49.678;6.560;2023-06-26T03:37:52;3.63;;;3.30;;
20090;SDS011;10205;49.678;6.560;2023-06-26T03:40:21;4.35;;;3.60;;
20090;SDS011;10205;49.678;6.560;2023-06-26T03:42:49;3.67;;;3.38;;
20090;SDS011;10205;49.678;6.560;2023-06-26T03:45:16;3.33;;;2.95;;
20090;SDS011;10205;49.678;6.560;2023-06-26T03:47:45;4.03;;;3.30;;
20090;SDS011;10205;49.678;6.560;2023-06-26T03:50:14;3.80;;;3.42;;
20090;SDS011;10205;49.678;6.560;2023-06-26T03:52:41;3.63;;;3.33;;
20090;SDS011;10205;49.678;6.560;2023-06-26T03:55:09;6.10;;;3.35;;
20090;SDS011;10205;49.678;6.560;2023-06-26T03:57:36;3.97;;;3.58;;
20090;SDS011;10205;49.678;6.560;2023-06-26T04:00:06;3.33;;;3.03;;
20090;SDS011;10205;49.678;6.560;2023-06-26T04:02:36;3.42;;;3.13;;
20090;SDS011;10205;49.678;6.560;2023-06-26T04:05:04;3.42;;;3.10;;
20090;SDS011;10205;49.678;6.560;2023-06-26T04:07:31;3.63;;;3.22;;
20090;SDS011;10205;49.678;6.560;2023-06-26T04:09:59;4.35;;;3.22;;
20090;SDS011;10205;49.678;6.560;2023-06-26T04:12:27;3.25;;;2.95;;
20090;SDS011;10205;49.678;6.560;2023-06-26T04:14:54;3.80;;;3.45;;
20090;SDS011;10205;49.678;6.560;2023-06-26T04:17:23;3.33;;;2.95;;
20090;SDS011;10205;49.678;6.560;2023-06-26T04:19:50;3.47;;;3.15;;
20090;SDS011;10205;49.678;6.560;2023-06-26T04:22:18;3.60;;;3.30;;
20090;SDS011;10205;49.678;6.560;2023-06-26T04:24:45;3.67;;;3.20;;
20090;SDS011;10205;49.678;6.560;2023-06-26T04:27:12;3.90;;;3.33;;
20090;SDS011;10205;49.678;6.560;2023-06-26T04:29:40;3.45;;;3.15;;
20090;SDS011;10205;49.678;6.560;2023-06-26T04:32:07;4.32;;;3.50;;
20090;SDS011;10205;49.678;6.560;2023-06-26T04:34:36;3.40;;;3.10;;
20090;SDS011;10205;49.678;6.560;2023-06-26T04:37:06;4.00;;;3.60;;
20090;SDS011;10205;49.678;6.560;2023-06-26T04:39:36;3.80;;;3.42;;
20090;SDS011;10205;49.678;6.560;2023-06-26T04:42:04;4.15;;;3.40;;
20090;SDS011;10205;49.678;6.560;2023-06-26T04:44:32;4.40;;;3.58;;
20090;SDS011;10205;49.678;6.560;2023-06-26T04:47:00;3.67;;;3.38;;
20090;SDS011;10205;49.678;6.560;2023-06-26T04:49:28;3.90;;;3.55;;
20090;SDS011;10205;49.678;6.560;2023-06-26T04:51:56;5.78;;;3.63;;
20090;SDS011;10205;49.678;6.560;2023-06-26T04:54:25;3.72;;;3.42;;
20090;SDS011;10205;49.678;6.560;2023-06-26T04:56:54;3.35;;;3.05;;
20090;SDS011;10205;49.678;6.560;2023-06-26T04:59:22;3.65;;;3.30;;
20090;SDS011;10205;49.678;6.560;2023-06-26T05:01:49;3.58;;;3.22;;
20090;SDS011;10205;49.678;6.560;2023-06-26T05:04:17;3.40;;;3.10;;
20090;SDS011;10205;49.678;6.560;2023-06-26T05:06:44;3.60;;;3.30;;
20090;SDS011;10205;49.678;6.560;2023-06-26T05:09:12;3.40;;;3.10;;
20090;SDS011;10205;49.678;6.560;2023-06-26T05:11:40;3.47;;;3.05;;
20090;SDS011;10205;49.678;6.560;2023-06-26T05:14:07;4.05;;;3.65;;
20090;SDS011;10205;49.678;6.560;2023-06-26T05:16:35;3.60;;;3.30;;
20090;SDS011;10205;49.678;6.560;2023-06-26T05:19:02;3.17;;;2.88;;
20090;SDS011;10205;49.678;6.560;2023-06-26T05:21:30;5.45;;;3.30;;
20090;SDS011;10205;49.678;6.560;2023-06-26T05:23:57;4.05;;;3.35;;
20090;SDS011;10205;49.678;6.560;2023-06-26T05:26:27;3.72;;;3.28;;
20090;SDS011;10205;49.678;6.560;2023-06-26T05:28:57;4.28;;;3.30;;
20090;SDS011;10205;49.678;6.560;2023-06-26T05:31:25;4.63;;;3.67;;
20090;SDS011;10205;49.678;6.560;2023-06-26T05:33:53;4.07;;;3.67;;
20090;SDS011;10205;49.678;6.560;2023-06-26T05:36:25;3.60;;;3.30;;
20090;SDS011;10205;49.678;6.560;2023-06-26T05:38:54;4.03;;;3.63;;
20090;SDS011;10205;49.678;6.560;2023-06-26T05:41:22;3.50;;;3.20;;
20090;SDS011;10205;49.678;6.560;2023-06-26T05:43:52;4.03;;;3.63;;
20090;SDS011;10205;49.678;6.560;2023-06-26T05:46:19;4.38;;;3.78;;
20090;SDS011;10205;49.678;6.560;2023-06-26T05:48:47;4.22;;;3.50;;
20090;SDS011;10205;49.678;6.560;2023-06-26T05:51:15;3.67;;;3.28;;
20090;SDS011;10205;49.678;6.560;2023-06-26T05:53:43;3.67;;;3.25;;
20090;SDS011;10205;49.678;6.560;2023-06-26T05:56:11;3.38;;;3.08;;
20090;SDS011;10205;49.678;6.560;2023-06-26T05:58:39;3.67;;;3.35;;
20090;SDS011;10205;49.678;6.560;2023-06-26T06:01:10;4.22;;;3.83;;
20090;SDS011;10205;49.678;6.560;2023-06-26T06:03:38;4.57;;;3.65;;
20090;SDS011;10205;49.678;6.560;2023-06-26T06:06:06;4.10;;;3.70;;
20090;SDS011;10205;49.678;6.560;2023-06-26T06:08:33;3.55;;;3.25;;
20090;SDS011;10205;49.678;6.560;2023-06-26T06:11:00;3.70;;;3.40;;
20090;SDS011;10205;49.678;6.560;2023-06-26T06:13:28;4.18;;;3.45;;
20090;SDS011;10205;49.678;6.560;2023-06-26T06:15:55;4.25;;;3.50;;
20090;SDS011;10205;49.678;6.560;2023-06-26T06:18:24;3.63;;;3.33;;
20090;SDS011;10205;49.678;6.560;2023-06-26T06:20:51;3.35;;;3.00;;
20090;SDS011;10205;49.678;6.560;2023-06-26T06:23:18;3.42;;;3.00;;
20090;SDS011;10205;49.678;6.560;2023-06-26T06:25:45;5.35;;;3.60;;
20090;SDS011;10205;49.678;6.560;2023-06-26T06:28:13;3.30;;;3.00;;
20090;SDS011;10205;49.678;6.560;2023-06-26T06:30:41;4.53;;;3.38;;
20090;SDS011;10205;49.678;6.560;2023-06-26T06:33:08;4.28;;;3.40;;
20090;SDS011;10205;49.678;6.560;2023-06-26T06:35:37;3.33;;;3.03;;
20090;SDS011;10205;49.678;6.560;2023-06-26T06:38:04;3.80;;;3.20;;
20090;SDS011;10205;49.678;6.560;2023-06-26T06:40:32;3.28;;;2.97;;
20090;SDS011;10205;49.678;6.560;2023-06-26T06:42:59;3.78;;;3.22;;
20090;SDS011;10205;49.678;6.560;2023-06-26T06:45:26;6.13;;;2.83;;
20090;SDS011;10205;49.678;6.560;2023-06-26T06:47:53;3.47;;;3.17;;
20090;SDS011;10205;49.678;6.560;2023-06-26T06:50:21;2.80;;;2.60;;
20090;SDS011;10205;49.678;6.560;2023-06-26T06:52:49;3.05;;;2.72;;
20090;SDS011;10205;49.678;6.560;2023-06-26T06:55:17;3.60;;;2.80;;
20090;SDS011;10205;49.678;6.560;2023-06-26T06:57:44;4.30;;;2.35;;
20090;SDS011;10205;49.678;6.560;2023-06-26T07:00:12;2.92;;;2.63;;
20090;SDS011;10205;49.678;6.560;2023-06-26T07:02:42;3.28;;;2.70;;
20090;SDS011;10205;49.678;6.560;2023-06-26T07:05:11;3.35;;;2.70;;
20090;SDS011;10205;49.678;6.560;2023-06-26T07:07:39;2.80;;;2.33;;
20090;SDS011;10205;49.678;6.560;2023-06-26T07:10:08;3.53;;;2.80;;
20090;SDS011;10205;49.678;6.560;2023-06-26T07:12:38;2.55;;;2.35;;
20090;SDS011;10205;49.678;6.560;2023-06-26T07:15:06;2.38;;;2.15;;
20090;SDS011;10205;49.678;6.560;2023-06-26T07:17:34;2.47;;;2.22;;
20090;SDS011;10205;49.678;6.560;2023-06-26T07:20:03;2.65;;;2.40;;
20090;SDS011;10205;49.678;6.560;2023-06-26T07:22:33;2.28;;;2.08;;
20090;SDS011;10205;49.678;6.560;2023-06-26T07:25:00;3.55;;;2.20;;
20090;SDS011;10205;49.678;6.560;2023-06-26T07:27:30;2.58;;;2.38;;
20090;SDS011;10205;49.678;6.560;2023-06-26T07:29:58;3.67;;;2.60;;
20090;SDS011;10205;49.678;6.560;2023-06-26T07:32:25;3.67;;;2.65;;
20090;SDS011;10205;49.678;6.560;2023-06-26T07:34:53;2.97;;;2.67;;
20090;SDS011;10205;49.678;6.560;2023-06-26T07:37:20;2.45;;;2.22;;
20090;SDS011;10205;49.678;6.560;2023-06-26T07:39:48;3.28;;;2.45;;
20090;SDS011;10205;49.678;6.560;2023-06-26T07:42:16;5.97;;;2.60;;
20090;SDS011;10205;49.678;6.560;2023-06-26T07:44:47;3.00;;;2.00;;
20090;SDS011;10205;49.678;6.560;2023-06-26T07:47:14;2.60;;;2.38;;
20090;SDS011;10205;49.678;6.560;2023-06-26T07:49:42;2.90;;;2.20;;
20090;SDS011;10205;49.678;6.560;2023-06-26T07:52:09;2.30;;;2.10;;
20090;SDS011;10205;49.678;6.560;2023-06-26T07:54:37;3.15;;;2.08;;
20090;SDS011;10205;49.678;6.560;2023-06-26T07:57:04;2.90;;;2.60;;
20090;SDS011;10205;49.678;6.560;2023-06-26T07:59:34;3.00;;;2.20;;
20090;SDS011;10205;49.678;6.560;2023-06-26T08:02:04;2.75;;;2.22;;
20090;SDS011;10205;49.678;6.560;2023-06-26T08:04:32;2.25;;;2.05;;
20090;SDS011;10205;49.678;6.560;2023-06-26T08:07:00;2.47;;;2.13;;
20090;SDS011;10205;49.678;6.560;2023-06-26T08:09:29;2.47;;;2.17;;
20090;SDS011;10205;49.678;6.560;2023-06-26T08:11:58;2.65;;;2.28;;
20090;SDS011;10205;49.678;6.560;2023-06-26T08:14:26;2.85;;;1.92;;
20090;SDS011;10205;49.678;6.560;2023-06-26T08:16:54;2.28;;;2.08;;
20090;SDS011;10205;49.678;6.560;2023-06-26T08:19:26;2.58;;;2.10;;
20090;SDS011;10205;49.678;6.560;2023-06-26T08:21:53;2.67;;;2.40;;
20090;SDS011;10205;49.678;6.560;2023-06-26T08:24:23;2.40;;;2.20;;
20090;SDS011;10205;49.678;6.560;2023-06-26T08:26:51;2.30;;;2.05;;
20090;SDS011;10205;49.678;6.560;2023-06-26T08:29:18;2.95;;;2.50;;
20090;SDS011;10205;49.678;6.560;2023-06-26T08:31:45;2.70;;;2.08;;
20090;SDS011;10205;49.678;6.560;2023-06-26T08:34:13;2.15;;;1.90;;
20090;SDS011;10205;49.678;6.560;2023-06-26T08:36:41;2.72;;;2.20;;
20090;SDS011;10205;49.678;6.560;2023-06-26T08:39:10;2.75;;;2.33;;
20090;SDS011;10205;49.678;6.560;2023-06-26T08:41:37;2.10;;;1.90;;
20090;SDS011;10205;49.678;6.560;2023-06-26T08:44:07;3.63;;;2.22;;
20090;SDS011;10205;49.678;6.560;2023-06-26T08:46:34;2.20;;;1.95;;
20090;SDS011;10205;49.678;6.560;2023-06-26T08:49:04;2.33;;;1.98;;
20090;SDS011;10205;49.678;6.560;2023-06-26T08:51:45;2.97;;;1.90;;
20090;SDS011;10205;49.678;6.560;2023-06-26T08:54:34;2.63;;;2.08;;
20090;SDS011;10205;49.678;6.560;2023-06-26T08:57:11;2.13;;;1.90;;
20090;SDS011;10205;49.678;6.560;2023-06-26T08:59:42;2.50;;;2.05;;
20090;SDS011;10205;49.678;6.560;2023-06-26T09:02:10;2.67;;;2.15;;
20090;SDS011;10205;49.678;6.560;2023-06-26T09:04:38;2.47;;;2.15;;
20090;SDS011;10205;49.678;6.560;2023-06-26T09:07:08;2.63;;;2.10;;
20090;SDS011;10205;49.678;6.560;2023-06-26T09:09:35;3.50;;;2.22;;
20090;SDS011;10205;49.678;6.560;2023-06-26T09:12:03;2.60;;;2.05;;
20090;SDS011;10205;49.678;6.560;2023-06-26T09:14:31;3.60;;;2.40;;
20090;SDS011;10205;49.678;6.560;2023-06-26T09:17:01;3.40;;;2.35;;
20090;SDS011;10205;49.678;6.560;2023-06-26T09:23:11;3.70;;;2.08;;
20090;SDS011;10205;49.678;6.560;2023-06-26T09:25:41;3.38;;;2.35;;
20090;SDS011;10205;49.678;6.560;2023-06-26T09:28:09;2.88;;;2.10;;
20090;SDS011;10205;49.678;6.560;2023-06-26T09:30:40;2.63;;;2.13;;
20090;SDS011;10205;49.678;6.560;2023-06-26T09:33:13;3.50;;;2.22;;
20090;SDS011;10205;49.678;6.560;2023-06-26T09:35:42;3.42;;;2.50;;
20090;SDS011;10205;49.678;6.560;2023-06-26T09:38:13;2.78;;;2.13;;
20090;SDS011;10205;49.678;6.560;2023-06-26T09:40:43;3.95;;;2.20;;
20090;SDS011;10205;49.678;6.560;2023-06-26T09:43:13;2.78;;;1.90;;
20090;SDS011;10205;49.678;6.560;2023-06-26T09:45:41;2.30;;;2.08;;
20090;SDS011;10205;49.678;6.560;2023-06-26T09:48:08;2.33;;;1.90;;
20090;SDS011;10205;49.678;6.560;2023-06-26T09:50:37;2.58;;;2.13;;
20090;SDS011;10205;49.678;6.560;2023-06-26T09:53:09;7.28;;;2.28;;
20090;SDS011;10205;49.678;6.560;2023-06-26T09:55:40;4.13;;;2.28;;
20090;SDS011;10205;49.678;6.560;2023-06-26T09:58:09;5.15;;;2.20;;
20090;SDS011;10205;49.678;6.560;2023-06-26T10:00:40;2.38;;;2.15;;
20090;SDS011;10205;49.678;6.560;2023-06-26T10:03:07;3.80;;;2.10;;
20090;SDS011;10205;49.678;6.560;2023-06-26T10:05:36;2.60;;;1.90;;
20090;SDS011;10205;49.678;6.560;2023-06-26T10:08:05;3.83;;;2.08;;
20090;SDS011;10205;49.678;6.560;2023-06-26T10:10:34;4.82;;;2.38;;
20090;SDS011;10205;49.678;6.560;2023-06-26T10:13:08;3.13;;;2.13;;
20090;SDS011;10205;49.678;6.560;2023-06-26T10:15:42;2.67;;;1.90;;
20090;SDS011;10205;49.678;6.560;2023-06-26T10:18:14;2.88;;;2.17;;
20090;SDS011;10205;49.678;6.560;2023-06-26T10:20:45;3.78;;;1.90;;
20090;SDS011;10205;49.678;6.560;2023-06-26T10:23:16;3.22;;;1.77;;
20090;SDS011;10205;49.678;6.560;2023-06-26T10:25:47;2.03;;;1.83;;
20090;SDS011;10205;49.678;6.560;2023-06-26T10:28:19;4.55;;;2.28;;
20090;SDS011;10205;49.678;6.560;2023-06-26T10:30:50;2.88;;;2.00;;
20090;SDS011;10205;49.678;6.560;2023-06-26T10:33:19;3.08;;;1.90;;
20090;SDS011;10205;49.678;6.560;2023-06-26T10:35:48;2.58;;;1.70;;
20090;SDS011;10205;49.678;6.560;2023-06-26T10:38:16;3.22;;;1.88;;
20090;SDS011;10205;49.678;6.560;2023-06-26T10:40:46;5.80;;;2.10;;
20090;SDS011;10205;49.678;6.560;2023-06-26T10:43:15;5.82;;;2.40;;
20090;SDS011;10205;49.678;6.560;2023-06-26T10:45:45;2.60;;;1.75;;
20090;SDS011;10205;49.678;6.560;2023-06-26T10:48:17;3.20;;;1.63;;
20090;SDS011;10205;49.678;6.560;2023-06-26T10:50:47;2.42;;;1.73;;
20090;SDS011;10205;49.678;6.560;2023-06-26T10:53:15;3.65;;;1.92;;
20090;SDS011;10205;49.678;6.560;2023-06-26T10:59:33;2.45;;;1.88;;
20090;SDS011;10205;49.678;6.560;2023-06-26T11:02:07;2.17;;;1.50;;
20090;SDS011;10205;49.678;6.560;2023-06-26T11:04:37;3.10;;;1.65;;
20090;SDS011;10205;49.678;6.560;2023-06-26T11:07:16;5.43;;;2.10;;
20090;SDS011;10205;49.678;6.560;2023-06-26T11:09:56;2.30;;;1.65;;
20090;SDS011;10205;49.678;6.560;2023-06-26T11:12:34;2.22;;;1.45;;
20090;SDS011;10205;49.678;6.560;2023-06-26T11:15:04;2.50;;;1.70;;
20090;SDS011;10205;49.678;6.560;2023-06-26T11:17:40;2.28;;;1.90;;
20090;SDS011;10205;49.678;6.560;2023-06-26T11:20:11;2.80;;;1.50;;
20090;SDS011;10205;49.678;6.560;2023-06-26T11:22:41;2.28;;;1.50;;
20090;SDS011;10205;49.678;6.560;2023-06-26T11:25:10;2.97;;;1.70;;
20090;SDS011;10205;49.678;6.560;2023-06-26T11:27:39;2.17;;;1.65;;
20090;SDS011;10205;49.678;6.560;2023-06-26T11:30:08;1.92;;;1.48;;
20090;SDS011;10205;49.678;6.560;2023-06-26T11:32:42;2.00;;;1.35;;
20090;SDS011;10205;49.678;6.560;2023-06-26T11:35:11;3.47;;;1.73;;
20090;SDS011;10205;49.678;6.560;2023-06-26T11:37:38;3.10;;;1.63;;
20090;SDS011;10205;49.678;6.560;2023-06-26T11:40:16;3.97;;;1.50;;
20090;SDS011;10205;49.678;6.560;2023-06-26T11:42:44;1.73;;;1.50;;
20090;SDS011;10205;49.678;6.560;2023-06-26T11:45:13;2.90;;;1.50;;
20090;SDS011;10205;49.678;6.560;2023-06-26T11:47:44;2.30;;;1.52;;
20090;SDS011;10205;49.678;6.560;2023-06-26T11:50:14;1.58;;;1.38;;
20090;SDS011;10205;49.678;6.560;2023-06-26T11:52:43;2.00;;;1.50;;
20090;SDS011;10205;49.678;6.560;2023-06-26T11:55:20;1.95;;;1.33;;
20090;SDS011;10205;49.678;6.560;2023-06-26T11:57:48;2.38;;;1.38;;
20090;SDS011;10205;49.678;6.560;2023-06-26T12:00:17;3.05;;;1.40;;
20090;SDS011;10205;49.678;6.560;2023-06-26T12:02:47;1.73;;;1.30;;
20090;SDS011;10205;49.678;6.560;2023-06-26T12:05:16;2.05;;;1.42;;
20090;SDS011;10205;49.678;6.560;2023-06-26T12:07:46;2.08;;;1.48;;
20090;SDS011;10205;49.678;6.560;2023-06-26T12:10:15;2.17;;;1.50;;
20090;SDS011;10205;49.678;6.560;2023-06-26T12:12:45;1.52;;;1.33;;
20090;SDS011;10205;49.678;6.560;2023-06-26T12:15:13;7.47;;;1.50;;
20090;SDS011;10205;49.678;6.560;2023-06-26T12:17:43;3.45;;;1.38;;
20090;SDS011;10205;49.678;6.560;2023-06-26T12:20:21;2.22;;;1.25;;
20090;SDS011;10205;49.678;6.560;2023-06-26T12:22:51;3.38;;;1.60;;
20090;SDS011;10205;49.678;6.560;2023-06-26T12:25:21;3.05;;;1.33;;
20090;SDS011;10205;49.678;6.560;2023-06-26T12:27:49;2.53;;;1.40;;
20090;SDS011;10205;49.678;6.560;2023-06-26T12:30:17;2.72;;;1.67;;
20090;SDS011;10205;49.678;6.560;2023-06-26T12:32:44;2.47;;;1.20;;
20090;SDS011;10205;49.678;6.560;2023-06-26T12:35:12;2.47;;;1.45;;
20090;SDS011;10205;49.678;6.560;2023-06-26T12:37:43;3.25;;;1.42;;
20090;SDS011;10205;49.678;6.560;2023-06-26T12:40:20;2.00;;;1.40;;
20090;SDS011;10205;49.678;6.560;2023-06-26T12:42:48;2.67;;;1.27;;
20090;SDS011;10205;49.678;6.560;2023-06-26T12:45:15;1.98;;;1.38;;
20090;SDS011;10205;49.678;6.560;2023-06-26T12:47:42;2.50;;;1.25;;
20090;SDS011;10205;49.678;6.560;2023-06-26T12:50:11;1.92;;;1.42;;
20090;SDS011;10205;49.678;6.560;2023-06-26T12:52:43;1.33;;;1.20;;
20090;SDS011;10205;49.678;6.560;2023-06-26T12:55:10;2.45;;;1.20;;
20090;SDS011;10205;49.678;6.560;2023-06-26T12:57:40;2.35;;;1.50;;
20090;SDS011;10205;49.678;6.560;2023-06-26T13:00:08;1.83;;;1.50;;
20090;SDS011;10205;49.678;6.560;2023-06-26T13:02:38;1.77;;;1.25;;
20090;SDS011;10205;49.678;6.560;2023-06-26T13:05:11;1.90;;;1.20;;
20090;SDS011;10205;49.678;6.560;2023-06-26T13:07:38;2.35;;;1.25;;
20090;SDS011;10205;49.678;6.560;2023-06-26T13:10:07;2.80;;;1.60;;
20090;SDS011;10205;49.678;6.560;2023-06-26T13:12:35;1.70;;;1.08;;
20090;SDS011;10205;49.678;6.560;2023-06-26T13:15:04;1.30;;;1.20;;
20090;SDS011;10205;49.678;6.560;2023-06-26T13:17:32;1.90;;;1.20;;
20090;SDS011;10205;49.678;6.560;2023-06-26T13:20:00;2.90;;;1.40;;
20090;SDS011;10205;49.678;6.560;2023-06-26T13:22:27;1.48;;;1.33;;
20090;SDS011;10205;49.678;6.560;2023-06-26T13:24:55;2.35;;;1.50;;
20090;SDS011;10205;49.678;6.560;2023-06-26T13:27:24;2.45;;;1.30;;
20090;SDS011;10205;49.678;6.560;2023-06-26T13:29:51;1.35;;;1.25;;
20090;SDS011;10205;49.678;6.560;2023-06-26T13:32:20;2.53;;;1.50;;
20090;SDS011;10205;49.678;6.560;2023-06-26T13:34:47;2.50;;;1.50;;
20090;SDS011;10205;49.678;6.560;2023-06-26T13:37:17;1.55;;;1.40;;
20090;SDS011;10205;49.678;6.560;2023-06-26T13:39:45;1.58;;;1.17;;
20090;SDS011;10205;49.678;6.560;2023-06-26T13:42:15;2.58;;;1.60;;
20090;SDS011;10205;49.678;6.560;2023-06-26T13:44:43;2.58;;;1.58;;
20090;SDS011;10205;49.678;6.560;2023-06-26T13:47:12;2.55;;;1.60;;
20090;SDS011;10205;49.678;6.560;2023-06-26T13:49:40;1.77;;;1.33;;
20090;SDS011;10205;49.678;6.560;2023-06-26T13:52:07;2.38;;;1.58;;
20090;SDS011;10205;49.678;6.560;2023-06-26T13:54:42;1.58;;;1.30;;
20090;SDS011;10205;49.678;6.560;2023-06-26T13:57:09;2.58;;;1.63;;
20090;SDS011;10205;49.678;6.560;2023-06-26T13:59:37;2.60;;;1.30;;
20090;SDS011;10205;49.678;6.560;2023-06-26T14:02:09;3.13;;;1.70;;
20090;SDS011;10205;49.678;6.560;2023-06-26T14:04:37;2.30;;;1.60;;
20090;SDS011;10205;49.678;6.560;2023-06-26T14:07:04;2.67;;;1.40;;
20090;SDS011;10205;49.678;6.560;2023-06-26T14:09:33;1.85;;;1.42;;
20090;SDS011;10205;49.678;6.560;2023-06-26T14:12:01;3.15;;;1.80;;
20090;SDS011;10205;49.678;6.560;2023-06-26T14:14:29;3.10;;;1.73;;
20090;SDS011;10205;49.678;6.560;2023-06-26T14:16:58;2.05;;;1.40;;
20090;SDS011;10205;49.678;6.560;2023-06-26T14:19:25;2.80;;;1.58;;
20090;SDS011;10205;49.678;6.560;2023-06-26T14:21:53;2.72;;;1.50;;
20090;SDS011;10205;49.678;6.560;2023-06-26T14:24:22;4.72;;;1.50;;
20090;SDS011;10205;49.678;6.560;2023-06-26T14:26:50;1.98;;;1.50;;
20090;SDS011;10205;49.678;6.560;2023-06-26T14:29:17;2.00;;;1.30;;
20090;SDS011;10205;49.678;6.560;2023-06-26T14:31:46;2.38;;;1.55;;
20090;SDS011;10205;49.678;6.560;2023-06-26T14:34:15;2.70;;;1.67;;
20090;SDS011;10205;49.678;6.560;2023-06-26T14:36:42;6.55;;;1.63;;
20090;SDS011;10205;49.678;6.560;2023-06-26T14:39:09;1.63;;;1.40;;
20090;SDS011;10205;49.678;6.560;2023-06-26T14:41:37;2.90;;;1.60;;
20090;SDS011;10205;49.678;6.560;2023-06-26T14:44:05;2.22;;;1.40;;
20090;SDS011;10205;49.678;6.560;2023-06-26T14:46:34;3.25;;;1.73;;
20090;SDS011;10205;49.678;6.560;2023-06-26T14:49:02;1.95;;;1.50;;
20090;SDS011;10205;49.678;6.560;2023-06-26T14:51:32;1.83;;;1.40;;
20090;SDS011;10205;49.678;6.560;2023-06-26T14:54:00;3.00;;;1.40;;
20090;SDS011;10205;49.678;6.560;2023-06-26T14:56:28;2.15;;;1.38;;
20090;SDS011;10205;49.678;6.560;2023-06-26T14:58:55;1.52;;;1.25;;
20090;SDS011;10205;49.678;6.560;2023-06-26T15:01:23;1.73;;;1.33;;
20090;SDS011;10205;49.678;6.560;2023-06-26T15:03:50;3.85;;;1.60;;
20090;SDS011;10205;49.678;6.560;2023-06-26T15:06:20;3.08;;;1.80;;
20090;SDS011;10205;49.678;6.560;2023-06-26T15:08:50;2.65;;;1.67;;
20090;SDS011;10205;49.678;6.560;2023-06-26T15:11:17;2.75;;;1.60;;
20090;SDS011;10205;49.678;6.560;2023-06-26T15:13:45;2.15;;;1.45;;